sensor_id;sensor_type;location;lat;lon;timestamp;P1;durP1;ratioP1;P2;durP2;ratioP2
18249;SDS011;27980;52.126;5.572;2024-02-16T00:01:43;3.60;;;2.63;;
18249;SDS011;27980;52.126;5.572;2024-02-16T00:04:09;5.05;;;2.17;;
18249;SDS011;27980;52.126;5.572;2024-02-16T00:06:36;5.85;;;2.72;;
18249;SDS011;27980;52.126;5.572;2024-02-16T00:09:02;3.85;;;2.55;;
18249;SDS011;27980;52.126;5.572;2024-02-16T00:11:29;4.28;;;2.80;;
18249;SDS011;27980;52.126;5.572;2024-02-16T00:13:55;4.57;;;2.50;;
18249;SDS011;27980;52.126;5.572;2024-02-16T00:16:23;2.45;;;2.08;;
18249;SDS011;27980;52.126;5.572;2024-02-16T00:18:49;5.60;;;2.90;;
18249;SDS011;27980;52.126;5.572;2024-02-16T00:21:16;4.95;;;2.80;;
18249;SDS011;27980;52.126;5.572;2024-02-16T00:23:42;7.28;;;2.55;;
18249;SDS011;27980;52.126;5.572;2024-02-16T00:26:09;4.78;;;2.67;;
18249;SDS011;27980;52.126;5.572;2024-02-16T00:28:35;4.20;;;2.45;;
18249;SDS011;27980;52.126;5.572;2024-02-16T00:31:02;4.25;;;3.08;;
18249;SDS011;27980;52.126;5.572;2024-02-16T00:33:32;3.67;;;2.30;;
18249;SDS011;27980;52.126;5.572;2024-02-16T00:35:58;3.17;;;2.88;;
18249;SDS011;27980;52.126;5.572;2024-02-16T00:38:24;2.80;;;2.15;;
18249;SDS011;27980;52.126;5.572;2024-02-16T00:40:51;2.40;;;2.20;;
18249;SDS011;27980;52.126;5.572;2024-02-16T00:43:17;6.15;;;3.28;;
18249;SDS011;27980;52.126;5.572;2024-02-16T00:45:43;5.13;;;3.28;;
18249;SDS011;27980;52.126;5.572;2024-02-16T00:48:10;7.43;;;2.75;;
18249;SDS011;27980;52.126;5.572;2024-02-16T00:50:38;6.25;;;2.85;;
18249;SDS011;27980;52.126;5.572;2024-02-16T00:53:04;5.65;;;2.90;;
18249;SDS011;27980;52.126;5.572;2024-02-16T00:55:31;5.10;;;3.35;;
18249;SDS011;27980;52.126;5.572;2024-02-16T00:57:57;5.78;;;3.17;;
18249;SDS011;27980;52.126;5.572;2024-02-16T01:00:23;3.88;;;3.10;;
18249;SDS011;27980;52.126;5.572;2024-02-16T01:02:51;5.82;;;2.78;;
18249;SDS011;27980;52.126;5.572;2024-02-16T01:05:18;4.88;;;2.67;;
18249;SDS011;27980;52.126;5.572;2024-02-16T01:07:46;5.22;;;2.80;;
18249;SDS011;27980;52.126;5.572;2024-02-16T01:10:12;5.93;;;3.30;;
18249;SDS011;27980;52.126;5.572;2024-02-16T01:12:39;4.13;;;2.88;;
18249;SDS011;27980;52.126;5.572;2024-02-16T01:15:05;12.45;;;3.05;;
18249;SDS011;27980;52.126;5.572;2024-02-16T01:17:32;7.85;;;3.60;;
18249;SDS011;27980;52.126;5.572;2024-02-16T01:19:59;6.28;;;2.97;;
18249;SDS011;27980;52.126;5.572;2024-02-16T01:22:25;6.75;;;3.47;;
18249;SDS011;27980;52.126;5.572;2024-02-16T01:24:55;9.90;;;3.53;;
18249;SDS011;27980;52.126;5.572;2024-02-16T01:27:24;3.80;;;2.75;;
18249;SDS011;27980;52.126;5.572;2024-02-16T01:29:52;4.28;;;3.40;;
18249;SDS011;27980;52.126;5.572;2024-02-16T01:32:19;3.83;;;3.10;;
18249;SDS011;27980;52.126;5.572;2024-02-16T01:34:45;3.75;;;3.00;;
18249;SDS011;27980;52.126;5.572;2024-02-16T01:37:14;4.35;;;3.30;;
18249;SDS011;27980;52.126;5.572;2024-02-16T01:39:41;5.35;;;3.03;;
18249;SDS011;27980;52.126;5.572;2024-02-16T01:42:09;5.75;;;3.00;;
18249;SDS011;27980;52.126;5.572;2024-02-16T01:44:35;5.45;;;3.03;;
18249;SDS011;27980;52.126;5.572;2024-02-16T01:47:02;5.05;;;2.92;;
18249;SDS011;27980;52.126;5.572;2024-02-16T01:49:31;5.93;;;3.13;;
18249;SDS011;27980;52.126;5.572;2024-02-16T01:51:57;4.57;;;2.88;;
18249;SDS011;27980;52.126;5.572;2024-02-16T01:54:23;6.47;;;2.95;;
18249;SDS011;27980;52.126;5.572;2024-02-16T01:56:50;7.50;;;3.30;;
18249;SDS011;27980;52.126;5.572;2024-02-16T01:59:18;4.75;;;3.25;;
18249;SDS011;27980;52.126;5.572;2024-02-16T02:01:44;4.00;;;3.13;;
18249;SDS011;27980;52.126;5.572;2024-02-16T02:04:11;4.93;;;3.00;;
18249;SDS011;27980;52.126;5.572;2024-02-16T02:06:37;5.03;;;2.95;;
18249;SDS011;27980;52.126;5.572;2024-02-16T02:09:04;4.00;;;3.13;;
18249;SDS011;27980;52.126;5.572;2024-02-16T02:11:30;5.03;;;3.20;;
18249;SDS011;27980;52.126;5.572;2024-02-16T02:13:57;5.00;;;2.92;;
18249;SDS011;27980;52.126;5.572;2024-02-16T02:16:25;5.50;;;3.20;;
18249;SDS011;27980;52.126;5.572;2024-02-16T02:18:51;4.68;;;2.90;;
18249;SDS011;27980;52.126;5.572;2024-02-16T02:21:18;6.18;;;2.55;;
18249;SDS011;27980;52.126;5.572;2024-02-16T02:23:46;5.63;;;3.60;;
18249;SDS011;27980;52.126;5.572;2024-02-16T02:26:13;4.25;;;3.10;;
18249;SDS011;27980;52.126;5.572;2024-02-16T02:28:41;5.45;;;3.08;;
18249;SDS011;27980;52.126;5.572;2024-02-16T02:31:08;7.07;;;3.30;;
18249;SDS011;27980;52.126;5.572;2024-02-16T02:33:35;4.05;;;3.05;;
18249;SDS011;27980;52.126;5.572;2024-02-16T02:36:01;3.75;;;2.63;;
18249;SDS011;27980;52.126;5.572;2024-02-16T02:38:29;3.67;;;2.95;;
18249;SDS011;27980;52.126;5.572;2024-02-16T02:40:57;4.97;;;3.08;;
18249;SDS011;27980;52.126;5.572;2024-02-16T02:43:24;3.50;;;2.53;;
18249;SDS011;27980;52.126;5.572;2024-02-16T02:45:50;7.00;;;3.50;;
18249;SDS011;27980;52.126;5.572;2024-02-16T02:48:16;3.97;;;2.70;;
18249;SDS011;27980;52.126;5.572;2024-02-16T02:50:43;5.47;;;3.10;;
18249;SDS011;27980;52.126;5.572;2024-02-16T02:53:09;5.00;;;3.10;;
18249;SDS011;27980;52.126;5.572;2024-02-16T02:55:36;3.95;;;2.90;;
18249;SDS011;27980;52.126;5.572;2024-02-16T02:58:04;11.45;;;3.30;;
18249;SDS011;27980;52.126;5.572;2024-02-16T03:00:30;5.30;;;3.20;;
18249;SDS011;27980;52.126;5.572;2024-02-16T03:02:56;6.65;;;2.75;;
18249;SDS011;27980;52.126;5.572;2024-02-16T03:05:23;5.45;;;3.08;;
18249;SDS011;27980;52.126;5.572;2024-02-16T03:07:49;4.10;;;2.78;;
18249;SDS011;27980;52.126;5.572;2024-02-16T03:10:16;5.40;;;3.08;;
18249;SDS011;27980;52.126;5.572;2024-02-16T03:12:47;4.95;;;2.97;;
18249;SDS011;27980;52.126;5.572;2024-02-16T03:15:15;7.57;;;3.17;;
18249;SDS011;27980;52.126;5.572;2024-02-16T03:17:42;4.47;;;2.70;;
18249;SDS011;27980;52.126;5.572;2024-02-16T03:20:09;5.03;;;3.30;;
18249;SDS011;27980;52.126;5.572;2024-02-16T03:22:36;3.88;;;2.72;;
18249;SDS011;27980;52.126;5.572;2024-02-16T03:25:02;9.07;;;2.78;;
18249;SDS011;27980;52.126;5.572;2024-02-16T03:27:30;7.05;;;2.85;;
18249;SDS011;27980;52.126;5.572;2024-02-16T03:29:56;7.35;;;3.20;;
18249;SDS011;27980;52.126;5.572;2024-02-16T03:32:24;4.68;;;2.90;;
18249;SDS011;27980;52.126;5.572;2024-02-16T03:34:51;4.65;;;3.20;;
18249;SDS011;27980;52.126;5.572;2024-02-16T03:37:17;6.63;;;3.00;;
18249;SDS011;27980;52.126;5.572;2024-02-16T03:39:44;4.22;;;3.33;;
18249;SDS011;27980;52.126;5.572;2024-02-16T03:42:10;4.55;;;2.85;;
18249;SDS011;27980;52.126;5.572;2024-02-16T03:44:36;3.67;;;2.78;;
18249;SDS011;27980;52.126;5.572;2024-02-16T03:47:03;5.60;;;2.72;;
18249;SDS011;27980;52.126;5.572;2024-02-16T03:49:31;4.65;;;2.70;;
18249;SDS011;27980;52.126;5.572;2024-02-16T03:52:00;3.78;;;2.40;;
18249;SDS011;27980;52.126;5.572;2024-02-16T03:54:27;3.95;;;2.78;;
18249;SDS011;27980;52.126;5.572;2024-02-16T03:56:54;6.30;;;2.90;;
18249;SDS011;27980;52.126;5.572;2024-02-16T03:59:21;3.55;;;2.97;;
18249;SDS011;27980;52.126;5.572;2024-02-16T04:01:48;4.32;;;2.65;;
18249;SDS011;27980;52.126;5.572;2024-02-16T04:04:15;4.47;;;2.35;;
18249;SDS011;27980;52.126;5.572;2024-02-16T04:06:42;7.22;;;3.20;;
18249;SDS011;27980;52.126;5.572;2024-02-16T04:09:09;5.75;;;2.72;;
18249;SDS011;27980;52.126;5.572;2024-02-16T04:11:36;4.95;;;3.25;;
18249;SDS011;27980;52.126;5.572;2024-02-16T04:14:03;3.33;;;2.50;;
18249;SDS011;27980;52.126;5.572;2024-02-16T04:16:30;7.60;;;2.85;;
18249;SDS011;27980;52.126;5.572;2024-02-16T04:18:56;5.20;;;2.95;;
18249;SDS011;27980;52.126;5.572;2024-02-16T04:21:23;5.50;;;2.67;;
18249;SDS011;27980;52.126;5.572;2024-02-16T04:23:50;4.78;;;2.75;;
18249;SDS011;27980;52.126;5.572;2024-02-16T04:26:17;3.80;;;2.72;;
18249;SDS011;27980;52.126;5.572;2024-02-16T04:28:43;4.22;;;2.92;;
18249;SDS011;27980;52.126;5.572;2024-02-16T04:31:10;4.43;;;3.00;;
18249;SDS011;27980;52.126;5.572;2024-02-16T04:33:36;6.47;;;2.70;;
18249;SDS011;27980;52.126;5.572;2024-02-16T04:36:04;3.42;;;2.92;;
18249;SDS011;27980;52.126;5.572;2024-02-16T04:38:31;3.90;;;2.55;;
18249;SDS011;27980;52.126;5.572;2024-02-16T04:40:59;4.65;;;3.08;;
18249;SDS011;27980;52.126;5.572;2024-02-16T04:43:25;5.47;;;2.80;;
18249;SDS011;27980;52.126;5.572;2024-02-16T04:45:52;3.53;;;2.50;;
18249;SDS011;27980;52.126;5.572;2024-02-16T04:48:19;5.47;;;3.17;;
18249;SDS011;27980;52.126;5.572;2024-02-16T04:50:46;5.32;;;2.70;;
18249;SDS011;27980;52.126;5.572;2024-02-16T04:53:11;4.63;;;3.25;;
18249;SDS011;27980;52.126;5.572;2024-02-16T04:55:38;4.90;;;2.78;;
18249;SDS011;27980;52.126;5.572;2024-02-16T04:58:05;4.43;;;2.78;;
18249;SDS011;27980;52.126;5.572;2024-02-16T05:00:34;5.72;;;2.78;;
18249;SDS011;27980;52.126;5.572;2024-02-16T05:03:00;4.38;;;2.92;;
18249;SDS011;27980;52.126;5.572;2024-02-16T05:05:27;6.28;;;3.13;;
18249;SDS011;27980;52.126;5.572;2024-02-16T05:07:55;3.40;;;2.78;;
18249;SDS011;27980;52.126;5.572;2024-02-16T05:10:22;7.55;;;2.97;;
18249;SDS011;27980;52.126;5.572;2024-02-16T05:12:48;3.97;;;3.00;;
18249;SDS011;27980;52.126;5.572;2024-02-16T05:15:16;6.40;;;3.00;;
18249;SDS011;27980;52.126;5.572;2024-02-16T05:17:46;4.05;;;3.10;;
18249;SDS011;27980;52.126;5.572;2024-02-16T05:20:13;4.32;;;2.92;;
18249;SDS011;27980;52.126;5.572;2024-02-16T05:22:41;4.38;;;3.03;;
18249;SDS011;27980;52.126;5.572;2024-02-16T05:25:08;4.55;;;2.55;;
18249;SDS011;27980;52.126;5.572;2024-02-16T05:27:35;4.78;;;2.90;;
18249;SDS011;27980;52.126;5.572;2024-02-16T05:30:03;7.70;;;3.60;;
18249;SDS011;27980;52.126;5.572;2024-02-16T05:32:33;3.85;;;2.80;;
18249;SDS011;27980;52.126;5.572;2024-02-16T05:35:00;4.25;;;2.50;;
18249;SDS011;27980;52.126;5.572;2024-02-16T05:37:29;5.18;;;2.70;;
18249;SDS011;27980;52.126;5.572;2024-02-16T05:39:57;5.50;;;3.47;;
18249;SDS011;27980;52.126;5.572;2024-02-16T05:42:33;7.72;;;3.08;;
18249;SDS011;27980;52.126;5.572;2024-02-16T05:45:00;3.20;;;2.72;;
18249;SDS011;27980;52.126;5.572;2024-02-16T05:47:27;2.95;;;2.53;;
18249;SDS011;27980;52.126;5.572;2024-02-16T05:49:55;7.40;;;3.17;;
18249;SDS011;27980;52.126;5.572;2024-02-16T05:52:21;3.70;;;2.70;;
18249;SDS011;27980;52.126;5.572;2024-02-16T05:54:48;4.97;;;2.65;;
18249;SDS011;27980;52.126;5.572;2024-02-16T05:57:15;4.13;;;2.70;;
18249;SDS011;27980;52.126;5.572;2024-02-16T05:59:43;5.80;;;2.72;;
18249;SDS011;27980;52.126;5.572;2024-02-16T06:02:10;4.25;;;2.95;;
18249;SDS011;27980;52.126;5.572;2024-02-16T06:04:38;4.80;;;2.50;;
18249;SDS011;27980;52.126;5.572;2024-02-16T06:07:06;3.65;;;2.80;;
18249;SDS011;27980;52.126;5.572;2024-02-16T06:09:33;3.22;;;2.58;;
18249;SDS011;27980;52.126;5.572;2024-02-16T06:12:00;3.33;;;2.17;;
18249;SDS011;27980;52.126;5.572;2024-02-16T06:14:28;3.58;;;2.47;;
18249;SDS011;27980;52.126;5.572;2024-02-16T06:16:54;4.25;;;2.65;;
18249;SDS011;27980;52.126;5.572;2024-02-16T06:19:21;5.05;;;2.75;;
18249;SDS011;27980;52.126;5.572;2024-02-16T06:21:47;4.03;;;2.70;;
18249;SDS011;27980;52.126;5.572;2024-02-16T06:24:15;6.25;;;2.55;;
18249;SDS011;27980;52.126;5.572;2024-02-16T06:26:41;3.85;;;2.72;;
18249;SDS011;27980;52.126;5.572;2024-02-16T06:29:08;5.53;;;2.75;;
18249;SDS011;27980;52.126;5.572;2024-02-16T06:31:35;3.72;;;2.60;;
18249;SDS011;27980;52.126;5.572;2024-02-16T06:34:01;6.10;;;2.85;;
18249;SDS011;27980;52.126;5.572;2024-02-16T06:36:28;3.50;;;2.72;;
18249;SDS011;27980;52.126;5.572;2024-02-16T06:38:54;3.97;;;2.83;;
18249;SDS011;27980;52.126;5.572;2024-02-16T06:41:22;3.85;;;2.40;;
18249;SDS011;27980;52.126;5.572;2024-02-16T06:43:48;4.10;;;2.83;;
18249;SDS011;27980;52.126;5.572;2024-02-16T06:46:15;4.13;;;3.03;;
18249;SDS011;27980;52.126;5.572;2024-02-16T06:48:41;4.05;;;2.50;;
18249;SDS011;27980;52.126;5.572;2024-02-16T06:51:07;5.63;;;2.78;;
18249;SDS011;27980;52.126;5.572;2024-02-16T06:53:34;5.38;;;2.88;;
18249;SDS011;27980;52.126;5.572;2024-02-16T06:56:00;4.35;;;2.67;;
18249;SDS011;27980;52.126;5.572;2024-02-16T06:58:29;3.72;;;2.60;;
18249;SDS011;27980;52.126;5.572;2024-02-16T07:00:55;6.57;;;2.83;;
18249;SDS011;27980;52.126;5.572;2024-02-16T07:03:23;3.65;;;2.45;;
18249;SDS011;27980;52.126;5.572;2024-02-16T07:05:49;4.55;;;2.70;;
18249;SDS011;27980;52.126;5.572;2024-02-16T07:08:16;3.60;;;2.35;;
18249;SDS011;27980;52.126;5.572;2024-02-16T07:10:42;6.70;;;2.60;;
18249;SDS011;27980;52.126;5.572;2024-02-16T07:13:09;2.67;;;2.28;;
18249;SDS011;27980;52.126;5.572;2024-02-16T07:15:37;7.10;;;2.75;;
18249;SDS011;27980;52.126;5.572;2024-02-16T07:18:03;4.10;;;2.50;;
18249;SDS011;27980;52.126;5.572;2024-02-16T07:20:30;4.28;;;2.70;;
18249;SDS011;27980;52.126;5.572;2024-02-16T07:22:57;3.55;;;2.75;;
18249;SDS011;27980;52.126;5.572;2024-02-16T07:25:23;4.82;;;3.28;;
18249;SDS011;27980;52.126;5.572;2024-02-16T07:27:50;7.55;;;2.88;;
18249;SDS011;27980;52.126;5.572;2024-02-16T07:30:17;3.60;;;2.60;;
18249;SDS011;27980;52.126;5.572;2024-02-16T07:32:49;4.05;;;2.42;;
18249;SDS011;27980;52.126;5.572;2024-02-16T07:35:17;4.20;;;2.53;;
18249;SDS011;27980;52.126;5.572;2024-02-16T07:37:43;4.57;;;2.80;;
18249;SDS011;27980;52.126;5.572;2024-02-16T07:40:10;3.33;;;2.60;;
18249;SDS011;27980;52.126;5.572;2024-02-16T07:42:37;5.07;;;2.92;;
18249;SDS011;27980;52.126;5.572;2024-02-16T07:45:04;4.18;;;2.58;;
18249;SDS011;27980;52.126;5.572;2024-02-16T07:47:31;4.30;;;2.33;;
18249;SDS011;27980;52.126;5.572;2024-02-16T07:49:59;5.32;;;2.53;;
18249;SDS011;27980;52.126;5.572;2024-02-16T07:52:25;4.30;;;2.55;;
18249;SDS011;27980;52.126;5.572;2024-02-16T07:54:51;4.10;;;3.03;;
18249;SDS011;27980;52.126;5.572;2024-02-16T07:57:18;5.00;;;2.58;;
18249;SDS011;27980;52.126;5.572;2024-02-16T07:59:44;6.82;;;2.97;;
18249;SDS011;27980;52.126;5.572;2024-02-16T08:02:11;5.78;;;2.60;;
18249;SDS011;27980;52.126;5.572;2024-02-16T08:04:40;4.82;;;2.88;;
18249;SDS011;27980;52.126;5.572;2024-02-16T08:07:08;4.85;;;2.78;;
18249;SDS011;27980;52.126;5.572;2024-02-16T08:09:34;3.60;;;2.40;;
18249;SDS011;27980;52.126;5.572;2024-02-16T08:12:01;4.40;;;2.70;;
18249;SDS011;27980;52.126;5.572;2024-02-16T08:14:30;7.03;;;2.95;;
18249;SDS011;27980;52.126;5.572;2024-02-16T08:16:57;5.70;;;2.35;;
18249;SDS011;27980;52.126;5.572;2024-02-16T08:19:23;3.40;;;2.55;;
18249;SDS011;27980;52.126;5.572;2024-02-16T08:21:57;3.95;;;3.17;;
18249;SDS011;27980;52.126;5.572;2024-02-16T08:24:25;7.07;;;2.95;;
18249;SDS011;27980;52.126;5.572;2024-02-16T08:26:51;3.55;;;2.85;;
18249;SDS011;27980;52.126;5.572;2024-02-16T08:29:18;3.50;;;2.50;;
18249;SDS011;27980;52.126;5.572;2024-02-16T08:31:45;5.13;;;3.10;;
18249;SDS011;27980;52.126;5.572;2024-02-16T08:34:13;4.93;;;2.78;;
18249;SDS011;27980;52.126;5.572;2024-02-16T08:36:43;4.70;;;2.50;;
18249;SDS011;27980;52.126;5.572;2024-02-16T08:39:09;4.88;;;2.83;;
18249;SDS011;27980;52.126;5.572;2024-02-16T08:41:38;4.53;;;2.80;;
18249;SDS011;27980;52.126;5.572;2024-02-16T08:44:04;9.93;;;3.70;;
18249;SDS011;27980;52.126;5.572;2024-02-16T08:46:30;5.15;;;3.00;;
18249;SDS011;27980;52.126;5.572;2024-02-16T08:48:57;4.10;;;2.88;;
18249;SDS011;27980;52.126;5.572;2024-02-16T08:51:23;7.45;;;3.10;;
18249;SDS011;27980;52.126;5.572;2024-02-16T08:53:50;6.47;;;2.80;;
18249;SDS011;27980;52.126;5.572;2024-02-16T08:56:16;3.47;;;2.72;;
18249;SDS011;27980;52.126;5.572;2024-02-16T08:58:44;4.47;;;2.60;;
18249;SDS011;27980;52.126;5.572;2024-02-16T09:01:10;7.85;;;2.97;;
18249;SDS011;27980;52.126;5.572;2024-02-16T09:03:36;6.80;;;3.30;;
18249;SDS011;27980;52.126;5.572;2024-02-16T09:06:04;6.20;;;2.75;;
18249;SDS011;27980;52.126;5.572;2024-02-16T09:08:30;3.88;;;2.80;;
18249;SDS011;27980;52.126;5.572;2024-02-16T09:10:58;5.45;;;3.40;;
18249;SDS011;27980;52.126;5.572;2024-02-16T09:13:24;4.72;;;3.20;;
18249;SDS011;27980;52.126;5.572;2024-02-16T09:15:52;7.32;;;2.85;;
18249;SDS011;27980;52.126;5.572;2024-02-16T09:18:18;5.70;;;2.63;;
18249;SDS011;27980;52.126;5.572;2024-02-16T09:20:45;5.75;;;3.03;;
18249;SDS011;27980;52.126;5.572;2024-02-16T09:23:11;5.47;;;2.90;;
18249;SDS011;27980;52.126;5.572;2024-02-16T09:25:37;4.30;;;3.00;;
18249;SDS011;27980;52.126;5.572;2024-02-16T09:28:05;5.38;;;2.72;;
18249;SDS011;27980;52.126;5.572;2024-02-16T09:30:32;5.10;;;3.20;;
18249;SDS011;27980;52.126;5.572;2024-02-16T09:33:00;8.93;;;3.25;;
18249;SDS011;27980;52.126;5.572;2024-02-16T09:35:27;5.95;;;2.80;;
18249;SDS011;27980;52.126;5.572;2024-02-16T09:37:54;3.83;;;2.83;;
18249;SDS011;27980;52.126;5.572;2024-02-16T09:40:21;4.55;;;2.88;;
18249;SDS011;27980;52.126;5.572;2024-02-16T09:42:47;5.13;;;3.30;;
18249;SDS011;27980;52.126;5.572;2024-02-16T09:45:14;6.45;;;3.92;;
18249;SDS011;27980;52.126;5.572;2024-02-16T09:47:41;6.03;;;3.50;;
18249;SDS011;27980;52.126;5.572;2024-02-16T09:50:11;4.40;;;3.30;;
18249;SDS011;27980;52.126;5.572;2024-02-16T09:52:37;7.75;;;3.63;;
18249;SDS011;27980;52.126;5.572;2024-02-16T09:55:04;5.35;;;3.75;;
18249;SDS011;27980;52.126;5.572;2024-02-16T09:57:32;7.28;;;3.70;;
18249;SDS011;27980;52.126;5.572;2024-02-16T09:59:58;6.38;;;3.88;;
18249;SDS011;27980;52.126;5.572;2024-02-16T10:02:25;10.82;;;3.67;;
18249;SDS011;27980;52.126;5.572;2024-02-16T10:04:51;6.00;;;4.43;;
18249;SDS011;27980;52.126;5.572;2024-02-16T10:07:20;4.22;;;3.58;;
18249;SDS011;27980;52.126;5.572;2024-02-16T10:09:56;8.18;;;4.20;;
18249;SDS011;27980;52.126;5.572;2024-02-16T10:12:22;9.25;;;4.78;;
18249;SDS011;27980;52.126;5.572;2024-02-16T10:14:53;8.32;;;4.55;;
18249;SDS011;27980;52.126;5.572;2024-02-16T10:17:20;6.22;;;4.30;;
18249;SDS011;27980;52.126;5.572;2024-02-16T10:19:54;6.55;;;4.40;;
18249;SDS011;27980;52.126;5.572;2024-02-16T10:22:22;6.15;;;4.53;;
18249;SDS011;27980;52.126;5.572;2024-02-16T10:24:49;5.53;;;4.25;;
18249;SDS011;27980;52.126;5.572;2024-02-16T10:27:15;8.23;;;4.93;;
18249;SDS011;27980;52.126;5.572;2024-02-16T10:29:42;7.35;;;4.93;;
18249;SDS011;27980;52.126;5.572;2024-02-16T10:32:09;5.05;;;4.07;;
18249;SDS011;27980;52.126;5.572;2024-02-16T10:34:36;11.65;;;4.93;;
18249;SDS011;27980;52.126;5.572;2024-02-16T10:37:04;5.60;;;4.70;;
18249;SDS011;27980;52.126;5.572;2024-02-16T10:39:33;7.38;;;4.93;;
18249;SDS011;27980;52.126;5.572;2024-02-16T10:42:03;6.65;;;4.80;;
18249;SDS011;27980;52.126;5.572;2024-02-16T10:44:31;8.70;;;4.90;;
18249;SDS011;27980;52.126;5.572;2024-02-16T10:46:58;7.93;;;4.85;;
18249;SDS011;27980;52.126;5.572;2024-02-16T10:49:24;7.15;;;4.88;;
18249;SDS011;27980;52.126;5.572;2024-02-16T10:51:51;7.72;;;5.07;;
18249;SDS011;27980;52.126;5.572;2024-02-16T10:54:21;9.15;;;5.55;;
18249;SDS011;27980;52.126;5.572;2024-02-16T10:56:52;10.73;;;5.18;;
18249;SDS011;27980;52.126;5.572;2024-02-16T10:59:19;7.10;;;5.03;;
18249;SDS011;27980;52.126;5.572;2024-02-16T11:01:45;8.10;;;5.22;;
18249;SDS011;27980;52.126;5.572;2024-02-16T11:04:13;7.75;;;5.20;;
18249;SDS011;27980;52.126;5.572;2024-02-16T11:06:46;8.05;;;5.78;;
18249;SDS011;27980;52.126;5.572;2024-02-16T11:09:23;7.68;;;5.30;;
18249;SDS011;27980;52.126;5.572;2024-02-16T11:11:52;9.57;;;5.18;;
18249;SDS011;27980;52.126;5.572;2024-02-16T11:14:20;7.82;;;4.95;;
18249;SDS011;27980;52.126;5.572;2024-02-16T11:16:47;8.98;;;6.03;;
18249;SDS011;27980;52.126;5.572;2024-02-16T11:19:13;7.82;;;5.50;;
18249;SDS011;27980;52.126;5.572;2024-02-16T11:21:54;9.13;;;6.40;;
18249;SDS011;27980;52.126;5.572;2024-02-16T11:24:27;7.90;;;6.07;;
18249;SDS011;27980;52.126;5.572;2024-02-16T11:26:56;10.15;;;7.72;;
18249;SDS011;27980;52.126;5.572;2024-02-16T11:29:22;11.30;;;7.82;;
18249;SDS011;27980;52.126;5.572;2024-02-16T11:31:50;10.10;;;7.18;;
18249;SDS011;27980;52.126;5.572;2024-02-16T11:34:21;10.70;;;7.28;;
18249;SDS011;27980;52.126;5.572;2024-02-16T11:36:47;13.55;;;7.65;;
18249;SDS011;27980;52.126;5.572;2024-02-16T11:39:14;10.88;;;7.82;;
18249;SDS011;27980;52.126;5.572;2024-02-16T11:41:41;11.02;;;8.88;;
18249;SDS011;27980;52.126;5.572;2024-02-16T11:44:09;9.20;;;7.93;;
18249;SDS011;27980;52.126;5.572;2024-02-16T11:46:38;10.48;;;7.78;;
18249;SDS011;27980;52.126;5.572;2024-02-16T11:49:05;13.85;;;7.70;;
18249;SDS011;27980;52.126;5.572;2024-02-16T11:51:32;10.55;;;8.15;;
18249;SDS011;27980;52.126;5.572;2024-02-16T11:53:58;13.90;;;8.57;;
18249;SDS011;27980;52.126;5.572;2024-02-16T11:56:25;11.75;;;7.97;;
18249;SDS011;27980;52.126;5.572;2024-02-16T11:58:51;13.27;;;8.95;;
18249;SDS011;27980;52.126;5.572;2024-02-16T12:01:19;11.70;;;8.13;;
18249;SDS011;27980;52.126;5.572;2024-02-16T12:03:46;10.50;;;7.90;;
18249;SDS011;27980;52.126;5.572;2024-02-16T12:06:19;15.05;;;9.55;;
18249;SDS011;27980;52.126;5.572;2024-02-16T12:08:45;15.35;;;9.40;;
18249;SDS011;27980;52.126;5.572;2024-02-16T12:11:12;10.52;;;8.45;;
18249;SDS011;27980;52.126;5.572;2024-02-16T12:13:39;12.10;;;8.85;;
18249;SDS011;27980;52.126;5.572;2024-02-16T12:16:06;12.93;;;9.13;;
18249;SDS011;27980;52.126;5.572;2024-02-16T12:18:34;12.73;;;9.00;;
18249;SDS011;27980;52.126;5.572;2024-02-16T12:21:01;11.90;;;9.18;;
18249;SDS011;27980;52.126;5.572;2024-02-16T12:23:28;16.50;;;10.45;;
18249;SDS011;27980;52.126;5.572;2024-02-16T12:25:55;16.63;;;10.18;;
18249;SDS011;27980;52.126;5.572;2024-02-16T12:28:23;14.52;;;10.48;;
18249;SDS011;27980;52.126;5.572;2024-02-16T12:30:50;14.00;;;9.75;;
18249;SDS011;27980;52.126;5.572;2024-02-16T12:33:16;12.02;;;9.35;;
18249;SDS011;27980;52.126;5.572;2024-02-16T12:35:44;14.38;;;9.65;;
18249;SDS011;27980;52.126;5.572;2024-02-16T12:38:12;11.88;;;9.65;;
18249;SDS011;27980;52.126;5.572;2024-02-16T12:40:38;14.13;;;9.07;;
18249;SDS011;27980;52.126;5.572;2024-02-16T12:43:05;11.85;;;8.60;;
18249;SDS011;27980;52.126;5.572;2024-02-16T12:45:33;11.73;;;8.10;;
18249;SDS011;27980;52.126;5.572;2024-02-16T12:48:00;10.30;;;6.82;;
18249;SDS011;27980;52.126;5.572;2024-02-16T12:50:27;11.55;;;7.68;;
18249;SDS011;27980;52.126;5.572;2024-02-16T12:52:54;11.07;;;6.97;;
18249;SDS011;27980;52.126;5.572;2024-02-16T12:55:22;8.77;;;6.63;;
18249;SDS011;27980;52.126;5.572;2024-02-16T12:57:48;7.60;;;4.25;;
18249;SDS011;27980;52.126;5.572;2024-02-16T13:00:16;8.15;;;4.35;;
18249;SDS011;27980;52.126;5.572;2024-02-16T13:02:42;7.03;;;3.50;;
18249;SDS011;27980;52.126;5.572;2024-02-16T13:05:09;5.57;;;3.53;;
18249;SDS011;27980;52.126;5.572;2024-02-16T13:07:36;4.93;;;3.47;;
18249;SDS011;27980;52.126;5.572;2024-02-16T13:10:04;2.78;;;2.47;;
18249;SDS011;27980;52.126;5.572;2024-02-16T13:12:32;4.82;;;3.38;;
18249;SDS011;27980;52.126;5.572;2024-02-16T13:14:59;3.75;;;3.30;;
18249;SDS011;27980;52.126;5.572;2024-02-16T13:17:25;4.65;;;3.28;;
18249;SDS011;27980;52.126;5.572;2024-02-16T13:19:51;4.10;;;3.47;;
18249;SDS011;27980;52.126;5.572;2024-02-16T13:22:18;4.55;;;3.17;;
18249;SDS011;27980;52.126;5.572;2024-02-16T13:24:44;4.05;;;3.03;;
18249;SDS011;27980;52.126;5.572;2024-02-16T13:27:14;4.93;;;2.60;;
18249;SDS011;27980;52.126;5.572;2024-02-16T13:29:41;4.43;;;2.75;;
18249;SDS011;27980;52.126;5.572;2024-02-16T13:32:07;3.25;;;2.58;;
18249;SDS011;27980;52.126;5.572;2024-02-16T13:34:33;2.78;;;2.50;;
18249;SDS011;27980;52.126;5.572;2024-02-16T13:37:00;2.88;;;2.47;;
18249;SDS011;27980;52.126;5.572;2024-02-16T13:39:26;3.40;;;2.40;;
18249;SDS011;27980;52.126;5.572;2024-02-16T13:41:53;4.50;;;2.42;;
18249;SDS011;27980;52.126;5.572;2024-02-16T13:44:20;2.80;;;2.45;;
18249;SDS011;27980;52.126;5.572;2024-02-16T13:46:47;2.78;;;2.20;;
18249;SDS011;27980;52.126;5.572;2024-02-16T13:49:13;2.83;;;2.28;;
18249;SDS011;27980;52.126;5.572;2024-02-16T13:51:40;2.38;;;2.17;;
18249;SDS011;27980;52.126;5.572;2024-02-16T13:54:07;2.47;;;2.28;;
18249;SDS011;27980;52.126;5.572;2024-02-16T13:56:33;2.83;;;2.33;;
18249;SDS011;27980;52.126;5.572;2024-02-16T13:59:00;4.95;;;2.50;;
18249;SDS011;27980;52.126;5.572;2024-02-16T14:01:28;2.45;;;2.15;;
18249;SDS011;27980;52.126;5.572;2024-02-16T14:03:55;3.70;;;2.63;;
18249;SDS011;27980;52.126;5.572;2024-02-16T14:06:21;4.38;;;2.22;;
18249;SDS011;27980;52.126;5.572;2024-02-16T14:08:48;2.28;;;1.70;;
18249;SDS011;27980;52.126;5.572;2024-02-16T14:11:17;4.85;;;2.45;;
18249;SDS011;27980;52.126;5.572;2024-02-16T14:13:44;4.15;;;2.50;;
18249;SDS011;27980;52.126;5.572;2024-02-16T14:16:10;2.47;;;1.98;;
18249;SDS011;27980;52.126;5.572;2024-02-16T14:18:38;4.75;;;2.28;;
18249;SDS011;27980;52.126;5.572;2024-02-16T14:21:05;5.68;;;2.08;;
18249;SDS011;27980;52.126;5.572;2024-02-16T14:23:31;2.10;;;1.88;;
18249;SDS011;27980;52.126;5.572;2024-02-16T14:25:58;2.90;;;1.77;;
18249;SDS011;27980;52.126;5.572;2024-02-16T14:28:25;2.45;;;2.10;;
18249;SDS011;27980;52.126;5.572;2024-02-16T14:30:51;3.35;;;1.98;;
18249;SDS011;27980;52.126;5.572;2024-02-16T14:33:18;2.30;;;2.10;;
18249;SDS011;27980;52.126;5.572;2024-02-16T14:35:46;5.50;;;2.30;;
18249;SDS011;27980;52.126;5.572;2024-02-16T14:38:13;3.83;;;2.38;;
18249;SDS011;27980;52.126;5.572;2024-02-16T14:40:40;3.83;;;2.55;;
18249;SDS011;27980;52.126;5.572;2024-02-16T14:43:06;4.03;;;2.53;;
18249;SDS011;27980;52.126;5.572;2024-02-16T14:45:34;3.78;;;2.70;;